sensor_id;sensor_type;location;lat;lon;timestamp;P1;durP1;ratioP1;P2;durP2;ratioP2
41923;SDS011;27613;48.116;11.656;2023-06-04T00:00:26;3.55;;;2.40;;
41923;SDS011;27613;48.116;11.656;2023-06-04T00:02:51;3.22;;;2.58;;
41923;SDS011;27613;48.116;11.656;2023-06-04T00:05:17;3.67;;;2.42;;
41923;SDS011;27613;48.116;11.656;2023-06-04T00:07:42;3.10;;;2.30;;
41923;SDS011;27613;48.116;11.656;2023-06-04T00:10:08;4.00;;;2.38;;
41923;SDS011;27613;48.116;11.656;2023-06-04T00:12:34;4.47;;;2.70;;
41923;SDS011;27613;48.116;11.656;2023-06-04T00:15:00;3.42;;;2.60;;
41923;SDS011;27613;48.116;11.656;2023-06-04T00:17:26;8.45;;;3.08;;
41923;SDS011;27613;48.116;11.656;2023-06-04T00:19:51;3.85;;;2.55;;
41923;SDS011;27613;48.116;11.656;2023-06-04T00:22:17;4.43;;;3.08;;
41923;SDS011;27613;48.116;11.656;2023-06-04T00:24:42;3.00;;;2.20;;
41923;SDS011;27613;48.116;11.656;2023-06-04T00:27:08;4.05;;;2.42;;
41923;SDS011;27613;48.116;11.656;2023-06-04T00:29:34;3.92;;;2.50;;
41923;SDS011;27613;48.116;11.656;2023-06-04T00:32:00;3.30;;;2.60;;
41923;SDS011;27613;48.116;11.656;2023-06-04T00:34:26;3.80;;;2.53;;
41923;SDS011;27613;48.116;11.656;2023-06-04T00:36:52;3.30;;;2.10;;
41923;SDS011;27613;48.116;11.656;2023-06-04T00:39:18;3.25;;;2.25;;
41923;SDS011;27613;48.116;11.656;2023-06-04T00:41:43;3.15;;;2.00;;
41923;SDS011;27613;48.116;11.656;2023-06-04T00:44:09;3.30;;;2.45;;
41923;SDS011;27613;48.116;11.656;2023-06-04T00:46:36;3.95;;;2.90;;
41923;SDS011;27613;48.116;11.656;2023-06-04T00:49:02;3.08;;;2.30;;
41923;SDS011;27613;48.116;11.656;2023-06-04T00:51:27;3.00;;;2.15;;
41923;SDS011;27613;48.116;11.656;2023-06-04T00:53:55;3.70;;;2.45;;
41923;SDS011;27613;48.116;11.656;2023-06-04T00:56:21;3.65;;;2.40;;
41923;SDS011;27613;48.116;11.656;2023-06-04T00:58:47;3.67;;;2.20;;
41923;SDS011;27613;48.116;11.656;2023-06-04T01:01:33;3.83;;;2.45;;
41923;SDS011;27613;48.116;11.656;2023-06-04T01:04:05;4.65;;;2.08;;
41923;SDS011;27613;48.116;11.656;2023-06-04T01:09:04;3.95;;;2.50;;
41923;SDS011;27613;48.116;11.656;2023-06-04T01:11:34;4.32;;;2.70;;
41923;SDS011;27613;48.116;11.656;2023-06-04T01:14:01;3.63;;;2.60;;
41923;SDS011;27613;48.116;11.656;2023-06-04T01:16:30;3.22;;;2.08;;
41923;SDS011;27613;48.116;11.656;2023-06-04T01:19:03;3.78;;;2.50;;
41923;SDS011;27613;48.116;11.656;2023-06-04T01:21:35;3.70;;;2.55;;
41923;SDS011;27613;48.116;11.656;2023-06-04T01:24:03;2.90;;;2.00;;
41923;SDS011;27613;48.116;11.656;2023-06-04T01:26:31;4.20;;;2.65;;
41923;SDS011;27613;48.116;11.656;2023-06-04T01:28:58;4.20;;;2.20;;
41923;SDS011;27613;48.116;11.656;2023-06-04T01:31:24;4.07;;;2.55;;
41923;SDS011;27613;48.116;11.656;2023-06-04T01:33:54;4.70;;;2.75;;
41923;SDS011;27613;48.116;11.656;2023-06-04T01:36:23;3.47;;;2.25;;
41923;SDS011;27613;48.116;11.656;2023-06-04T01:38:50;5.68;;;2.58;;
41923;SDS011;27613;48.116;11.656;2023-06-04T01:41:15;3.95;;;2.35;;
41923;SDS011;27613;48.116;11.656;2023-06-04T01:43:41;2.92;;;2.00;;
41923;SDS011;27613;48.116;11.656;2023-06-04T01:46:12;2.83;;;2.38;;
41923;SDS011;27613;48.116;11.656;2023-06-04T01:48:37;3.17;;;2.22;;
41923;SDS011;27613;48.116;11.656;2023-06-04T01:51:04;3.80;;;2.72;;
41923;SDS011;27613;48.116;11.656;2023-06-04T01:53:30;3.30;;;2.50;;
41923;SDS011;27613;48.116;11.656;2023-06-04T01:55:55;2.10;;;1.70;;
41923;SDS011;27613;48.116;11.656;2023-06-04T01:58:22;3.17;;;2.30;;
41923;SDS011;27613;48.116;11.656;2023-06-04T02:00:51;3.47;;;2.42;;
41923;SDS011;27613;48.116;11.656;2023-06-04T02:03:18;1.90;;;1.65;;
41923;SDS011;27613;48.116;11.656;2023-06-04T02:05:43;4.60;;;2.80;;
41923;SDS011;27613;48.116;11.656;2023-06-04T02:08:11;3.58;;;2.38;;
41923;SDS011;27613;48.116;11.656;2023-06-04T02:10:37;3.70;;;2.47;;
41923;SDS011;27613;48.116;11.656;2023-06-04T02:13:02;2.95;;;2.20;;
41923;SDS011;27613;48.116;11.656;2023-06-04T02:15:29;3.47;;;2.28;;
41923;SDS011;27613;48.116;11.656;2023-06-04T02:17:59;4.70;;;2.70;;
41923;SDS011;27613;48.116;11.656;2023-06-04T02:20:41;2.67;;;2.00;;
41923;SDS011;27613;48.116;11.656;2023-06-04T02:23:11;3.55;;;2.30;;
41923;SDS011;27613;48.116;11.656;2023-06-04T02:25:37;3.85;;;2.47;;
41923;SDS011;27613;48.116;11.656;2023-06-04T02:28:02;2.35;;;1.80;;
41923;SDS011;27613;48.116;11.656;2023-06-04T02:30:28;3.85;;;2.42;;
41923;SDS011;27613;48.116;11.656;2023-06-04T02:32:53;3.30;;;2.30;;
41923;SDS011;27613;48.116;11.656;2023-06-04T02:35:20;3.42;;;2.45;;
41923;SDS011;27613;48.116;11.656;2023-06-04T02:37:49;3.53;;;2.30;;
41923;SDS011;27613;48.116;11.656;2023-06-04T02:40:16;3.30;;;2.53;;
41923;SDS011;27613;48.116;11.656;2023-06-04T02:42:41;3.58;;;2.15;;
41923;SDS011;27613;48.116;11.656;2023-06-04T02:45:07;2.90;;;2.00;;
41923;SDS011;27613;48.116;11.656;2023-06-04T02:47:33;4.68;;;2.30;;
41923;SDS011;27613;48.116;11.656;2023-06-04T02:49:58;2.95;;;2.00;;
41923;SDS011;27613;48.116;11.656;2023-06-04T02:52:24;3.45;;;2.20;;
41923;SDS011;27613;48.116;11.656;2023-06-04T02:54:50;2.72;;;1.95;;
41923;SDS011;27613;48.116;11.656;2023-06-04T02:57:16;2.45;;;1.85;;
41923;SDS011;27613;48.116;11.656;2023-06-04T02:59:41;2.92;;;2.13;;
41923;SDS011;27613;48.116;11.656;2023-06-04T03:02:07;2.53;;;2.03;;
41923;SDS011;27613;48.116;11.656;2023-06-04T03:04:33;3.58;;;2.20;;
41923;SDS011;27613;48.116;11.656;2023-06-04T03:07:01;3.50;;;2.17;;
41923;SDS011;27613;48.116;11.656;2023-06-04T03:09:27;4.10;;;2.63;;
41923;SDS011;27613;48.116;11.656;2023-06-04T03:11:53;3.72;;;2.70;;
41923;SDS011;27613;48.116;11.656;2023-06-04T03:14:19;2.40;;;1.75;;
41923;SDS011;27613;48.116;11.656;2023-06-04T03:16:45;3.15;;;2.20;;
41923;SDS011;27613;48.116;11.656;2023-06-04T03:19:10;4.55;;;2.55;;
41923;SDS011;27613;48.116;11.656;2023-06-04T03:21:36;3.33;;;2.33;;
41923;SDS011;27613;48.116;11.656;2023-06-04T03:24:05;6.00;;;2.30;;
41923;SDS011;27613;48.116;11.656;2023-06-04T03:26:31;3.92;;;2.30;;
41923;SDS011;27613;48.116;11.656;2023-06-04T03:28:57;2.95;;;2.28;;
41923;SDS011;27613;48.116;11.656;2023-06-04T03:31:22;4.50;;;2.58;;
41923;SDS011;27613;48.116;11.656;2023-06-04T03:33:48;2.90;;;2.08;;
41923;SDS011;27613;48.116;11.656;2023-06-04T03:36:16;3.55;;;2.60;;
41923;SDS011;27613;48.116;11.656;2023-06-04T03:38:41;2.65;;;1.95;;
41923;SDS011;27613;48.116;11.656;2023-06-04T03:41:07;3.22;;;2.42;;
41923;SDS011;27613;48.116;11.656;2023-06-04T03:43:33;3.50;;;2.55;;
41923;SDS011;27613;48.116;11.656;2023-06-04T03:45:58;2.58;;;2.05;;
41923;SDS011;27613;48.116;11.656;2023-06-04T03:48:24;3.95;;;2.58;;
41923;SDS011;27613;48.116;11.656;2023-06-04T03:50:49;3.03;;;2.22;;
41923;SDS011;27613;48.116;11.656;2023-06-04T03:53:15;4.03;;;2.33;;
41923;SDS011;27613;48.116;11.656;2023-06-04T03:55:41;3.63;;;2.50;;
41923;SDS011;27613;48.116;11.656;2023-06-04T03:58:06;2.70;;;2.17;;
41923;SDS011;27613;48.116;11.656;2023-06-04T04:00:34;3.78;;;2.15;;
41923;SDS011;27613;48.116;11.656;2023-06-04T04:02:59;4.65;;;2.60;;
41923;SDS011;27613;48.116;11.656;2023-06-04T04:05:25;3.05;;;2.30;;
41923;SDS011;27613;48.116;11.656;2023-06-04T04:07:51;2.92;;;2.05;;
41923;SDS011;27613;48.116;11.656;2023-06-04T04:10:16;3.72;;;2.28;;
41923;SDS011;27613;48.116;11.656;2023-06-04T04:12:42;3.20;;;2.20;;
41923;SDS011;27613;48.116;11.656;2023-06-04T04:15:07;3.65;;;2.35;;
41923;SDS011;27613;48.116;11.656;2023-06-04T04:17:33;3.70;;;2.42;;
41923;SDS011;27613;48.116;11.656;2023-06-04T04:19:59;5.15;;;2.97;;
41923;SDS011;27613;48.116;11.656;2023-06-04T04:22:24;3.78;;;2.33;;
41923;SDS011;27613;48.116;11.656;2023-06-04T04:24:50;3.53;;;2.30;;
41923;SDS011;27613;48.116;11.656;2023-06-04T04:27:15;3.40;;;2.30;;
41923;SDS011;27613;48.116;11.656;2023-06-04T04:29:41;6.65;;;2.80;;
41923;SDS011;27613;48.116;11.656;2023-06-04T04:32:08;3.25;;;2.25;;
41923;SDS011;27613;48.116;11.656;2023-06-04T04:34:37;3.50;;;2.45;;
41923;SDS011;27613;48.116;11.656;2023-06-04T04:37:07;4.22;;;2.42;;
41923;SDS011;27613;48.116;11.656;2023-06-04T04:39:35;2.90;;;2.10;;
41923;SDS011;27613;48.116;11.656;2023-06-04T04:42:01;2.90;;;2.20;;
41923;SDS011;27613;48.116;11.656;2023-06-04T04:44:27;3.65;;;2.53;;
41923;SDS011;27613;48.116;11.656;2023-06-04T04:46:53;3.55;;;2.25;;
41923;SDS011;27613;48.116;11.656;2023-06-04T04:49:18;3.63;;;2.10;;
41923;SDS011;27613;48.116;11.656;2023-06-04T04:51:44;3.22;;;2.15;;
41923;SDS011;27613;48.116;11.656;2023-06-04T04:54:10;3.03;;;1.98;;
41923;SDS011;27613;48.116;11.656;2023-06-04T04:56:35;3.80;;;2.35;;
41923;SDS011;27613;48.116;11.656;2023-06-04T04:59:01;3.88;;;2.35;;
41923;SDS011;27613;48.116;11.656;2023-06-04T05:01:27;2.97;;;1.80;;
41923;SDS011;27613;48.116;11.656;2023-06-04T05:03:53;4.47;;;2.28;;
41923;SDS011;27613;48.116;11.656;2023-06-04T05:06:18;3.25;;;1.90;;
41923;SDS011;27613;48.116;11.656;2023-06-04T05:08:44;3.35;;;1.95;;
41923;SDS011;27613;48.116;11.656;2023-06-04T05:11:10;5.13;;;1.63;;
41923;SDS011;27613;48.116;11.656;2023-06-04T05:13:35;3.05;;;1.90;;
41923;SDS011;27613;48.116;11.656;2023-06-04T05:16:01;2.97;;;1.90;;
41923;SDS011;27613;48.116;11.656;2023-06-04T05:18:36;2.35;;;1.60;;
41923;SDS011;27613;48.116;11.656;2023-06-04T05:21:05;2.83;;;1.85;;
41923;SDS011;27613;48.116;11.656;2023-06-04T05:23:32;2.72;;;1.92;;
41923;SDS011;27613;48.116;11.656;2023-06-04T05:25:59;2.58;;;1.70;;
41923;SDS011;27613;48.116;11.656;2023-06-04T05:28:26;2.72;;;1.80;;
41923;SDS011;27613;48.116;11.656;2023-06-04T05:30:52;2.58;;;1.55;;
41923;SDS011;27613;48.116;11.656;2023-06-04T05:33:23;2.35;;;1.50;;
41923;SDS011;27613;48.116;11.656;2023-06-04T05:35:49;6.38;;;2.30;;
41923;SDS011;27613;48.116;11.656;2023-06-04T05:38:17;2.03;;;1.55;;
41923;SDS011;27613;48.116;11.656;2023-06-04T05:40:45;2.22;;;1.70;;
41923;SDS011;27613;48.116;11.656;2023-06-04T05:43:11;4.82;;;1.60;;
41923;SDS011;27613;48.116;11.656;2023-06-04T05:45:37;3.17;;;1.83;;
41923;SDS011;27613;48.116;11.656;2023-06-04T05:48:03;1.83;;;1.40;;
41923;SDS011;27613;48.116;11.656;2023-06-04T05:50:30;2.47;;;1.80;;
41923;SDS011;27613;48.116;11.656;2023-06-04T05:52:56;2.17;;;1.40;;
41923;SDS011;27613;48.116;11.656;2023-06-04T05:55:22;2.40;;;1.67;;
41923;SDS011;27613;48.116;11.656;2023-06-04T05:57:48;7.65;;;2.08;;
41923;SDS011;27613;48.116;11.656;2023-06-04T06:00:16;2.10;;;1.50;;
41923;SDS011;27613;48.116;11.656;2023-06-04T06:02:42;1.88;;;1.42;;
41923;SDS011;27613;48.116;11.656;2023-06-04T06:05:08;2.13;;;1.45;;
41923;SDS011;27613;48.116;11.656;2023-06-04T06:07:34;1.75;;;1.15;;
41923;SDS011;27613;48.116;11.656;2023-06-04T06:10:00;2.88;;;1.60;;
41923;SDS011;27613;48.116;11.656;2023-06-04T06:12:26;2.55;;;1.98;;
41923;SDS011;27613;48.116;11.656;2023-06-04T06:14:51;2.85;;;1.63;;
41923;SDS011;27613;48.116;11.656;2023-06-04T06:17:17;2.22;;;1.58;;
41923;SDS011;27613;48.116;11.656;2023-06-04T06:19:42;2.15;;;1.40;;
41923;SDS011;27613;48.116;11.656;2023-06-04T06:22:08;3.50;;;1.58;;
41923;SDS011;27613;48.116;11.656;2023-06-04T06:24:33;2.17;;;1.40;;
41923;SDS011;27613;48.116;11.656;2023-06-04T06:26:59;2.70;;;1.70;;
41923;SDS011;27613;48.116;11.656;2023-06-04T06:29:25;4.22;;;1.70;;
41923;SDS011;27613;48.116;11.656;2023-06-04T06:31:50;2.38;;;1.50;;
41923;SDS011;27613;48.116;11.656;2023-06-04T06:34:16;4.18;;;2.10;;
41923;SDS011;27613;48.116;11.656;2023-06-04T06:36:41;2.30;;;1.45;;
41923;SDS011;27613;48.116;11.656;2023-06-04T06:39:07;2.50;;;1.50;;
41923;SDS011;27613;48.116;11.656;2023-06-04T06:41:34;2.00;;;1.35;;
41923;SDS011;27613;48.116;11.656;2023-06-04T06:43:59;1.65;;;1.35;;
41923;SDS011;27613;48.116;11.656;2023-06-04T06:46:25;2.95;;;1.85;;
41923;SDS011;27613;48.116;11.656;2023-06-04T06:48:50;3.33;;;1.50;;
41923;SDS011;27613;48.116;11.656;2023-06-04T06:51:16;2.78;;;1.60;;
41923;SDS011;27613;48.116;11.656;2023-06-04T06:53:43;2.92;;;1.70;;
41923;SDS011;27613;48.116;11.656;2023-06-04T06:56:08;2.85;;;1.75;;
41923;SDS011;27613;48.116;11.656;2023-06-04T06:58:34;2.55;;;1.60;;
41923;SDS011;27613;48.116;11.656;2023-06-04T07:01:00;2.33;;;1.65;;
41923;SDS011;27613;48.116;11.656;2023-06-04T07:03:26;2.88;;;1.70;;
41923;SDS011;27613;48.116;11.656;2023-06-04T07:05:51;1.67;;;1.30;;
41923;SDS011;27613;48.116;11.656;2023-06-04T07:08:17;2.75;;;1.73;;
41923;SDS011;27613;48.116;11.656;2023-06-04T07:10:42;2.08;;;1.55;;
41923;SDS011;27613;48.116;11.656;2023-06-04T07:13:08;2.83;;;1.90;;
41923;SDS011;27613;48.116;11.656;2023-06-04T07:15:34;2.58;;;2.00;;
41923;SDS011;27613;48.116;11.656;2023-06-04T07:17:59;2.55;;;1.80;;
41923;SDS011;27613;48.116;11.656;2023-06-04T07:20:25;1.98;;;1.38;;
41923;SDS011;27613;48.116;11.656;2023-06-04T07:22:51;2.85;;;1.83;;
41923;SDS011;27613;48.116;11.656;2023-06-04T07:25:16;2.60;;;1.65;;
41923;SDS011;27613;48.116;11.656;2023-06-04T07:27:42;3.95;;;1.88;;
41923;SDS011;27613;48.116;11.656;2023-06-04T07:30:08;1.92;;;1.48;;
41923;SDS011;27613;48.116;11.656;2023-06-04T07:32:34;2.20;;;1.55;;
41923;SDS011;27613;48.116;11.656;2023-06-04T07:35:01;2.22;;;1.25;;
41923;SDS011;27613;48.116;11.656;2023-06-04T07:37:27;2.20;;;1.58;;
41923;SDS011;27613;48.116;11.656;2023-06-04T07:39:52;2.28;;;1.80;;
41923;SDS011;27613;48.116;11.656;2023-06-04T07:42:18;2.60;;;1.60;;
41923;SDS011;27613;48.116;11.656;2023-06-04T07:44:43;2.22;;;1.58;;
41923;SDS011;27613;48.116;11.656;2023-06-04T07:47:09;2.40;;;1.60;;
41923;SDS011;27613;48.116;11.656;2023-06-04T07:49:35;3.83;;;1.70;;
41923;SDS011;27613;48.116;11.656;2023-06-04T07:52:01;2.50;;;1.70;;
41923;SDS011;27613;48.116;11.656;2023-06-04T07:54:26;2.85;;;1.83;;
41923;SDS011;27613;48.116;11.656;2023-06-04T07:56:52;1.70;;;1.42;;
41923;SDS011;27613;48.116;11.656;2023-06-04T07:59:21;2.22;;;1.50;;
41923;SDS011;27613;48.116;11.656;2023-06-04T08:01:50;2.17;;;1.50;;
41923;SDS011;27613;48.116;11.656;2023-06-04T08:04:16;2.58;;;1.60;;
41923;SDS011;27613;48.116;11.656;2023-06-04T08:06:42;3.00;;;1.77;;
41923;SDS011;27613;48.116;11.656;2023-06-04T08:09:09;2.05;;;1.67;;
41923;SDS011;27613;48.116;11.656;2023-06-04T08:11:36;2.60;;;1.70;;
41923;SDS011;27613;48.116;11.656;2023-06-04T08:14:02;4.10;;;1.58;;
41923;SDS011;27613;48.116;11.656;2023-06-04T08:16:27;2.22;;;1.45;;
41923;SDS011;27613;48.116;11.656;2023-06-04T08:18:53;2.13;;;1.55;;
41923;SDS011;27613;48.116;11.656;2023-06-04T08:21:25;2.75;;;1.70;;
41923;SDS011;27613;48.116;11.656;2023-06-04T08:23:52;2.10;;;1.40;;
41923;SDS011;27613;48.116;11.656;2023-06-04T08:26:18;2.33;;;1.70;;
41923;SDS011;27613;48.116;11.656;2023-06-04T08:28:44;2.88;;;1.40;;
41923;SDS011;27613;48.116;11.656;2023-06-04T08:31:12;2.55;;;1.58;;
41923;SDS011;27613;48.116;11.656;2023-06-04T08:33:38;4.47;;;1.63;;
41923;SDS011;27613;48.116;11.656;2023-06-04T08:36:03;3.03;;;1.48;;
41923;SDS011;27613;48.116;11.656;2023-06-04T08:38:30;6.38;;;2.28;;
41923;SDS011;27613;48.116;11.656;2023-06-04T08:40:56;2.50;;;1.52;;
41923;SDS011;27613;48.116;11.656;2023-06-04T08:43:37;2.15;;;1.48;;
41923;SDS011;27613;48.116;11.656;2023-06-04T08:46:05;1.80;;;1.30;;
41923;SDS011;27613;48.116;11.656;2023-06-04T08:48:33;2.22;;;1.23;;
41923;SDS011;27613;48.116;11.656;2023-06-04T08:51:00;1.92;;;1.25;;
41923;SDS011;27613;48.116;11.656;2023-06-04T08:53:27;2.63;;;1.60;;
41923;SDS011;27613;48.116;11.656;2023-06-04T08:55:55;2.53;;;1.40;;
41923;SDS011;27613;48.116;11.656;2023-06-04T08:58:21;1.88;;;1.50;;
41923;SDS011;27613;48.116;11.656;2023-06-04T09:00:48;1.55;;;1.10;;
41923;SDS011;27613;48.116;11.656;2023-06-04T09:03:13;11.55;;;1.58;;
41923;SDS011;27613;48.116;11.656;2023-06-04T09:05:40;1.92;;;1.40;;
41923;SDS011;27613;48.116;11.656;2023-06-04T09:08:12;3.60;;;1.70;;
41923;SDS011;27613;48.116;11.656;2023-06-04T09:10:41;3.05;;;1.50;;
41923;SDS011;27613;48.116;11.656;2023-06-04T09:13:10;2.65;;;1.40;;
41923;SDS011;27613;48.116;11.656;2023-06-04T09:15:36;2.80;;;1.55;;
41923;SDS011;27613;48.116;11.656;2023-06-04T09:18:02;3.97;;;1.65;;
41923;SDS011;27613;48.116;11.656;2023-06-04T09:20:28;2.38;;;1.50;;
41923;SDS011;27613;48.116;11.656;2023-06-04T09:22:53;3.42;;;1.40;;
41923;SDS011;27613;48.116;11.656;2023-06-04T09:25:20;2.22;;;1.40;;
41923;SDS011;27613;48.116;11.656;2023-06-04T09:27:47;2.80;;;1.50;;
41923;SDS011;27613;48.116;11.656;2023-06-04T09:30:13;1.85;;;1.30;;
41923;SDS011;27613;48.116;11.656;2023-06-04T09:32:39;3.55;;;1.75;;
41923;SDS011;27613;48.116;11.656;2023-06-04T09:35:12;1.52;;;1.30;;
41923;SDS011;27613;48.116;11.656;2023-06-04T09:37:42;2.07;;;1.47;;
41923;SDS011;27613;48.116;11.656;2023-06-04T09:40:16;3.30;;;1.58;;
41923;SDS011;27613;48.116;11.656;2023-06-04T09:45:25;2.80;;;1.48;;
41923;SDS011;27613;48.116;11.656;2023-06-04T09:47:52;1.98;;;1.35;;
41923;SDS011;27613;48.116;11.656;2023-06-04T09:50:24;2.88;;;1.45;;
41923;SDS011;27613;48.116;11.656;2023-06-04T09:52:51;2.08;;;1.20;;
41923;SDS011;27613;48.116;11.656;2023-06-04T09:55:17;1.67;;;1.23;;
41923;SDS011;27613;48.116;11.656;2023-06-04T09:57:47;2.35;;;1.45;;
41923;SDS011;27613;48.116;11.656;2023-06-04T10:00:17;3.08;;;1.27;;
41923;SDS011;27613;48.116;11.656;2023-06-04T10:02:49;2.08;;;1.40;;
41923;SDS011;27613;48.116;11.656;2023-06-04T10:05:16;1.30;;;1.02;;
41923;SDS011;27613;48.116;11.656;2023-06-04T10:07:44;2.15;;;1.40;;
41923;SDS011;27613;48.116;11.656;2023-06-04T10:10:11;1.75;;;1.30;;
41923;SDS011;27613;48.116;11.656;2023-06-04T10:15:15;1.38;;;1.27;;
41923;SDS011;27613;48.116;11.656;2023-06-04T10:17:42;1.80;;;1.30;;
41923;SDS011;27613;48.116;11.656;2023-06-04T10:20:08;1.33;;;1.17;;
41923;SDS011;27613;48.116;11.656;2023-06-04T10:22:35;15.18;;;1.45;;
41923;SDS011;27613;48.116;11.656;2023-06-04T10:25:02;1.92;;;1.17;;
41923;SDS011;27613;48.116;11.656;2023-06-04T10:27:32;2.92;;;1.40;;
41923;SDS011;27613;48.116;11.656;2023-06-04T10:30:00;1.73;;;1.20;;
41923;SDS011;27613;48.116;11.656;2023-06-04T10:32:28;3.20;;;1.35;;
41923;SDS011;27613;48.116;11.656;2023-06-04T10:34:54;3.47;;;1.42;;
41923;SDS011;27613;48.116;11.656;2023-06-04T10:37:22;2.08;;;1.30;;
41923;SDS011;27613;48.116;11.656;2023-06-04T10:39:50;2.70;;;2.10;;
41923;SDS011;27613;48.116;11.656;2023-06-04T10:42:20;3.50;;;2.33;;
41923;SDS011;27613;48.116;11.656;2023-06-04T10:44:47;1.38;;;1.27;;
41923;SDS011;27613;48.116;11.656;2023-06-04T10:47:21;1.95;;;1.27;;
41923;SDS011;27613;48.116;11.656;2023-06-04T10:49:53;1.67;;;1.20;;
41923;SDS011;27613;48.116;11.656;2023-06-04T10:52:19;3.38;;;1.30;;
41923;SDS011;27613;48.116;11.656;2023-06-04T10:54:46;2.42;;;1.60;;
41923;SDS011;27613;48.116;11.656;2023-06-04T10:57:16;1.55;;;1.23;;
41923;SDS011;27613;48.116;11.656;2023-06-04T10:59:55;2.65;;;1.27;;
41923;SDS011;27613;48.116;11.656;2023-06-04T11:02:22;1.35;;;1.10;;
41923;SDS011;27613;48.116;11.656;2023-06-04T11:04:57;1.40;;;0.90;;
41923;SDS011;27613;48.116;11.656;2023-06-04T11:07:40;2.27;;;1.20;;
41923;SDS011;27613;48.116;11.656;2023-06-04T11:10:08;2.03;;;1.30;;
41923;SDS011;27613;48.116;11.656;2023-06-04T11:12:48;1.88;;;1.38;;
41923;SDS011;27613;48.116;11.656;2023-06-04T11:15:15;1.60;;;1.30;;
41923;SDS011;27613;48.116;11.656;2023-06-04T11:17:48;1.60;;;1.35;;
41923;SDS011;27613;48.116;11.656;2023-06-04T11:20:15;2.25;;;1.60;;
41923;SDS011;27613;48.116;11.656;2023-06-04T11:22:43;1.40;;;1.02;;
41923;SDS011;27613;48.116;11.656;2023-06-04T11:25:16;1.85;;;1.30;;
41923;SDS011;27613;48.116;11.656;2023-06-04T11:27:42;2.47;;;1.35;;
41923;SDS011;27613;48.116;11.656;2023-06-04T11:30:08;3.40;;;1.25;;
41923;SDS011;27613;48.116;11.656;2023-06-04T11:32:34;1.23;;;1.00;;
41923;SDS011;27613;48.116;11.656;2023-06-04T11:35:03;2.70;;;1.40;;
41923;SDS011;27613;48.116;11.656;2023-06-04T11:37:33;2.10;;;1.40;;
41923;SDS011;27613;48.116;11.656;2023-06-04T11:39:59;2.05;;;1.33;;
41923;SDS011;27613;48.116;11.656;2023-06-04T11:42:26;1.55;;;1.27;;
41923;SDS011;27613;48.116;11.656;2023-06-04T11:44:58;1.08;;;0.98;;
41923;SDS011;27613;48.116;11.656;2023-06-04T11:47:24;1.50;;;1.20;;
41923;SDS011;27613;48.116;11.656;2023-06-04T11:49:56;1.63;;;1.20;;
41923;SDS011;27613;48.116;11.656;2023-06-04T11:52:22;1.85;;;1.33;;
41923;SDS011;27613;48.116;11.656;2023-06-04T11:54:48;3.03;;;1.42;;
41923;SDS011;27613;48.116;11.656;2023-06-04T11:57:14;2.42;;;1.42;;
41923;SDS011;27613;48.116;11.656;2023-06-04T11:59:40;1.83;;;1.40;;
41923;SDS011;27613;48.116;11.656;2023-06-04T12:02:06;2.92;;;1.30;;
41923;SDS011;27613;48.116;11.656;2023-06-04T12:04:32;1.75;;;1.20;;
41923;SDS011;27613;48.116;11.656;2023-06-04T12:06:58;1.65;;;1.35;;
41923;SDS011;27613;48.116;11.656;2023-06-04T12:09:31;2.00;;;1.40;;
41923;SDS011;27613;48.116;11.656;2023-06-04T12:12:03;1.75;;;1.20;;
41923;SDS011;27613;48.116;11.656;2023-06-04T12:14:30;1.73;;;1.27;;
41923;SDS011;27613;48.116;11.656;2023-06-04T12:19:25;2.17;;;1.45;;
41923;SDS011;27613;48.116;11.656;2023-06-04T12:22:01;10.38;;;1.40;;
41923;SDS011;27613;48.116;11.656;2023-06-04T12:24:28;1.60;;;1.30;;
41923;SDS011;27613;48.116;11.656;2023-06-04T12:27:05;1.05;;;0.98;;
41923;SDS011;27613;48.116;11.656;2023-06-04T12:29:36;1.52;;;1.20;;
41923;SDS011;27613;48.116;11.656;2023-06-04T12:32:06;2.42;;;1.40;;
41923;SDS011;27613;48.116;11.656;2023-06-04T12:34:36;2.17;;;1.60;;
41923;SDS011;27613;48.116;11.656;2023-06-04T12:37:02;1.50;;;1.08;;
41923;SDS011;27613;48.116;11.656;2023-06-04T12:39:28;1.50;;;1.13;;
41923;SDS011;27613;48.116;11.656;2023-06-04T12:41:54;1.88;;;1.50;;
41923;SDS011;27613;48.116;11.656;2023-06-04T12:44:20;1.88;;;1.20;;
41923;SDS011;27613;48.116;11.656;2023-06-04T12:46:46;2.42;;;1.40;;
41923;SDS011;27613;48.116;11.656;2023-06-04T12:49:12;2.22;;;1.42;;
41923;SDS011;27613;48.116;11.656;2023-06-04T12:51:37;2.17;;;1.40;;
41923;SDS011;27613;48.116;11.656;2023-06-04T12:54:03;1.83;;;1.30;;
41923;SDS011;27613;48.116;11.656;2023-06-04T12:56:29;1.75;;;1.40;;
41923;SDS011;27613;48.116;11.656;2023-06-04T12:58:55;2.40;;;1.50;;
41923;SDS011;27613;48.116;11.656;2023-06-04T13:01:21;1.88;;;1.50;;
41923;SDS011;27613;48.116;11.656;2023-06-04T13:03:46;1.67;;;1.55;;
41923;SDS011;27613;48.116;11.656;2023-06-04T13:06:12;1.48;;;1.27;;
41923;SDS011;27613;48.116;11.656;2023-06-04T13:08:38;1.55;;;1.10;;
41923;SDS011;27613;48.116;11.656;2023-06-04T13:11:03;2.03;;;1.30;;
41923;SDS011;27613;48.116;11.656;2023-06-04T13:13:30;1.70;;;1.35;;
41923;SDS011;27613;48.116;11.656;2023-06-04T13:15:55;1.65;;;1.42;;
41923;SDS011;27613;48.116;11.656;2023-06-04T13:18:21;1.45;;;1.20;;
41923;SDS011;27613;48.116;11.656;2023-06-04T13:20:47;2.78;;;1.50;;
41923;SDS011;27613;48.116;11.656;2023-06-04T13:23:14;2.08;;;1.20;;
41923;SDS011;27613;48.116;11.656;2023-06-04T13:25:40;1.92;;;1.40;;
41923;SDS011;27613;48.116;11.656;2023-06-04T13:28:05;1.65;;;1.30;;
41923;SDS011;27613;48.116;11.656;2023-06-04T13:30:32;2.97;;;1.65;;
41923;SDS011;27613;48.116;11.656;2023-06-04T13:33:04;1.98;;;1.55;;
41923;SDS011;27613;48.116;11.656;2023-06-04T13:35:30;1.52;;;1.17;;
41923;SDS011;27613;48.116;11.656;2023-06-04T13:37:56;3.17;;;1.38;;
41923;SDS011;27613;48.116;11.656;2023-06-04T13:40:22;1.77;;;1.27;;
41923;SDS011;27613;48.116;11.656;2023-06-04T13:42:48;1.42;;;1.10;;
41923;SDS011;27613;48.116;11.656;2023-06-04T13:45:13;1.48;;;1.30;;
41923;SDS011;27613;48.116;11.656;2023-06-04T13:47:41;4.95;;;1.30;;
41923;SDS011;27613;48.116;11.656;2023-06-04T13:50:06;2.13;;;1.40;;
41923;SDS011;27613;48.116;11.656;2023-06-04T13:52:32;1.63;;;1.38;;
41923;SDS011;27613;48.116;11.656;2023-06-04T13:54:58;1.98;;;1.40;;
41923;SDS011;27613;48.116;11.656;2023-06-04T13:57:24;2.10;;;1.50;;
41923;SDS011;27613;48.116;11.656;2023-06-04T13:59:50;2.15;;;1.50;;
41923;SDS011;27613;48.116;11.656;2023-06-04T14:02:16;3.05;;;1.45;;
41923;SDS011;27613;48.116;11.656;2023-06-04T14:04:42;1.85;;;1.42;;
41923;SDS011;27613;48.116;11.656;2023-06-04T14:07:07;2.67;;;1.80;;
41923;SDS011;27613;48.116;11.656;2023-06-04T14:09:33;1.92;;;1.60;;
41923;SDS011;27613;48.116;11.656;2023-06-04T14:11:59;1.63;;;1.38;;
41923;SDS011;27613;48.116;11.656;2023-06-04T14:14:25;2.38;;;1.58;;
41923;SDS011;27613;48.116;11.656;2023-06-04T14:16:50;3.55;;;1.58;;
41923;SDS011;27613;48.116;11.656;2023-06-04T14:19:16;2.95;;;1.52;;
41923;SDS011;27613;48.116;11.656;2023-06-04T14:21:41;1.98;;;1.63;;
41923;SDS011;27613;48.116;11.656;2023-06-04T14:24:08;2.38;;;1.63;;
41923;SDS011;27613;48.116;11.656;2023-06-04T14:26:34;2.33;;;1.58;;
41923;SDS011;27613;48.116;11.656;2023-06-04T14:29:00;3.40;;;1.65;;
41923;SDS011;27613;48.116;11.656;2023-06-04T14:31:26;1.90;;;1.30;;
41923;SDS011;27613;48.116;11.656;2023-06-04T14:33:52;2.22;;;1.48;;
41923;SDS011;27613;48.116;11.656;2023-06-04T14:36:17;3.08;;;1.80;;
41923;SDS011;27613;48.116;11.656;2023-06-04T14:38:43;2.55;;;1.52;;
41923;SDS011;27613;48.116;11.656;2023-06-04T14:41:09;5.85;;;1.38;;